createdAt,value
2023-01-09T00:01:28.820Z,14.90
2023-01-09T00:03:56.704Z,14.82
2023-01-09T00:06:24.306Z,16.20
2023-01-09T00:08:51.863Z,14.55
2023-01-09T00:11:20.294Z,17.73
2023-01-09T00:13:47.842Z,17.85
2023-01-09T00:16:15.841Z,15.52
2023-01-09T00:18:43.730Z,16.05
2023-01-09T00:21:12.541Z,13.07
2023-01-09T00:23:40.257Z,16.23
2023-01-09T00:26:19.206Z,14.98
2023-01-09T00:28:48.284Z,15.85
2023-01-09T00:31:17.727Z,13.95
2023-01-09T00:34:10.555Z,13.68
2023-01-09T00:36:38.461Z,13.13
2023-01-09T00:39:06.400Z,13.00
2023-01-09T00:41:43.321Z,12.90
2023-01-09T00:44:15.016Z,14.25
2023-01-09T00:46:51.298Z,17.80
2023-01-09T00:49:19.509Z,14.23
2023-01-09T00:51:47.172Z,14.20
2023-01-09T00:54:16.748Z,12.85
2023-01-09T00:56:44.773Z,16.48
2023-01-09T00:59:12.413Z,13.02
2023-01-09T01:01:40.033Z,14.27
2023-01-09T01:04:26.535Z,13.55
2023-01-09T01:07:14.296Z,14.80
2023-01-09T01:09:42.117Z,17.70
2023-01-09T01:12:09.606Z,13.13
2023-01-09T01:14:38.300Z,14.57
2023-01-09T01:17:06.949Z,16.00
2023-01-09T01:19:35.360Z,13.05
2023-01-09T01:22:03.036Z,12.85
2023-01-09T01:24:30.981Z,12.73
2023-01-09T01:26:58.421Z,12.70
2023-01-09T01:29:26.738Z,14.20
2023-01-09T01:31:54.893Z,14.23
2023-01-09T01:34:23.369Z,12.18
2023-01-09T01:36:50.885Z,13.88
2023-01-09T01:39:18.796Z,11.53
2023-01-09T01:41:46.295Z,11.68
2023-01-09T01:44:51.393Z,10.95
2023-01-09T01:47:19.608Z,11.48
2023-01-09T01:49:47.493Z,12.45
2023-01-09T01:52:15.568Z,12.70
2023-01-09T01:54:43.517Z,12.18
2023-01-09T01:57:11.097Z,10.27
2023-01-09T01:59:43.129Z,12.05
2023-01-09T02:02:11.509Z,12.25
2023-01-09T02:04:40.431Z,10.90
2023-01-09T02:07:09.919Z,11.75
2023-01-09T02:09:39.335Z,11.98
2023-01-09T02:12:24.631Z,12.15
2023-01-09T02:15:05.051Z,12.30
2023-01-09T02:17:58.645Z,11.10
2023-01-09T02:20:38.263Z,10.77
2023-01-09T02:23:43.514Z,11.20
2023-01-09T02:26:45.451Z,11.63
2023-01-09T02:29:22.004Z,9.30
2023-01-09T02:32:09.949Z,12.50
2023-01-09T02:35:16.570Z,9.75
2023-01-09T02:38:08.816Z,9.23
2023-01-09T02:41:10.198Z,13.32
2023-01-09T02:43:39.594Z,9.85
2023-01-09T02:46:19.284Z,9.47
2023-01-09T02:48:50.048Z,9.85
2023-01-09T02:51:37.266Z,13.60
2023-01-09T02:54:34.514Z,10.23
2023-01-09T02:57:11.938Z,12.45
2023-01-09T02:59:39.713Z,9.50
2023-01-09T03:02:34.460Z,10.82
2023-01-09T03:05:05.061Z,10.55
2023-01-09T03:07:57.196Z,12.05
2023-01-09T03:10:33.862Z,12.80
2023-01-09T03:13:02.893Z,10.10
2023-01-09T03:15:34.792Z,11.82
2023-01-09T03:18:04.360Z,11.02
2023-01-09T03:20:32.598Z,11.07
2023-01-09T03:23:02.338Z,10.13
2023-01-09T03:25:31.100Z,15.23
2023-01-09T03:28:07.518Z,13.68
2023-01-09T03:30:36.533Z,10.65
2023-01-09T03:33:04.459Z,11.77
2023-01-09T03:35:32.020Z,10.43
2023-01-09T03:37:59.501Z,10.20
2023-01-09T03:40:27.568Z,10.68
2023-01-09T03:42:55.131Z,12.63
2023-01-09T03:45:22.709Z,10.10
2023-01-09T03:47:52.887Z,13.90
2023-01-09T03:50:20.730Z,11.37
2023-01-09T03:52:48.364Z,11.07
2023-01-09T03:55:16.153Z,11.85
2023-01-09T03:57:43.777Z,13.57
2023-01-09T04:00:11.943Z,13.82
2023-01-09T04:02:40.113Z,20.00
2023-01-09T04:05:08.348Z,17.75
2023-01-09T04:07:35.931Z,17.02
2023-01-09T04:10:03.974Z,15.43
2023-01-09T04:12:31.975Z,20.88
2023-01-09T04:14:59.480Z,17.00
2023-01-09T04:17:27.035Z,12.75
2023-01-09T04:19:54.876Z,12.15
2023-01-09T04:22:22.395Z,15.15
2023-01-09T04:24:49.902Z,15.40
2023-01-09T04:27:17.970Z,14.50
2023-01-09T04:29:46.097Z,14.35
2023-01-09T04:32:13.789Z,14.82
2023-01-09T04:34:41.703Z,17.20
2023-01-09T04:37:09.273Z,16.50
2023-01-09T04:39:37.336Z,18.73
2023-01-09T04:42:05.176Z,21.77
2023-01-09T04:44:32.764Z,18.48
2023-01-09T04:47:00.326Z,17.95
2023-01-09T04:49:28.418Z,18.25
2023-01-09T04:51:56.120Z,16.17
2023-01-09T04:54:23.636Z,17.77
2023-01-09T04:56:51.462Z,17.70
2023-01-09T04:59:19.075Z,15.98
2023-01-09T05:01:46.764Z,19.52
2023-01-09T05:04:14.733Z,16.63
2023-01-09T05:06:42.337Z,14.52
2023-01-09T05:09:09.866Z,16.27
2023-01-09T05:11:37.993Z,17.37
2023-01-09T05:14:05.602Z,15.55
2023-01-09T05:16:33.256Z,15.27
2023-01-09T05:19:01.111Z,13.62
2023-01-09T05:21:28.663Z,17.00
2023-01-09T05:23:56.181Z,15.68
2023-01-09T05:26:24.388Z,17.05
2023-01-09T05:28:53.038Z,17.03
2023-01-09T05:31:21.010Z,18.25
2023-01-09T05:33:49.145Z,14.45
2023-01-09T05:36:16.834Z,16.95
2023-01-09T05:38:44.437Z,16.45
2023-01-09T05:41:12.478Z,16.60
2023-01-09T05:43:40.023Z,17.12
2023-01-09T05:46:07.773Z,16.77
2023-01-09T05:48:35.609Z,15.77
2023-01-09T05:51:03.454Z,16.95
2023-01-09T05:53:30.947Z,16.60
2023-01-09T05:55:58.748Z,15.88
2023-01-09T05:58:26.583Z,17.60
2023-01-09T06:00:54.360Z,16.55
2023-01-09T06:03:22.210Z,16.48
2023-01-09T06:05:49.837Z,21.87
2023-01-09T06:08:17.707Z,16.08
2023-01-09T06:10:46.237Z,16.15
2023-01-09T06:13:14.032Z,17.33
2023-01-09T06:15:41.612Z,18.27
2023-01-09T06:18:09.534Z,16.53
2023-01-09T06:20:37.114Z,16.98
2023-01-09T06:23:04.631Z,17.40
2023-01-09T06:25:32.463Z,17.45
2023-01-09T06:28:00.405Z,18.48
2023-01-09T06:30:27.972Z,21.40
2023-01-09T06:32:55.894Z,17.60
2023-01-09T06:35:23.621Z,16.87
2023-01-09T06:37:51.326Z,19.70
2023-01-09T06:40:21.173Z,19.50
2023-01-09T06:42:49.808Z,17.10
2023-01-09T06:45:17.529Z,19.95
2023-01-09T06:47:45.354Z,19.37
2023-01-09T06:50:13.038Z,16.33
2023-01-09T06:52:40.529Z,19.02
2023-01-09T06:55:09.062Z,16.20
2023-01-09T06:57:36.787Z,18.48
2023-01-09T07:00:04.997Z,19.37
2023-01-09T07:02:32.876Z,18.83
2023-01-09T07:05:00.832Z,15.93
2023-01-09T07:07:28.311Z,17.90
2023-01-09T07:09:56.251Z,18.15
2023-01-09T07:12:23.788Z,22.25
2023-01-09T07:14:51.296Z,18.27
2023-01-09T07:17:19.057Z,17.75
2023-01-09T07:19:46.825Z,18.07
2023-01-09T07:22:14.335Z,19.90
2023-01-09T07:24:44.331Z,15.23
2023-01-09T07:27:12.056Z,20.15
2023-01-09T07:29:39.538Z,19.65
2023-01-09T07:32:07.793Z,19.90
2023-01-09T07:34:35.546Z,20.70
2023-01-09T07:37:03.066Z,17.80
2023-01-09T07:39:30.850Z,19.87
2023-01-09T07:41:58.388Z,20.40
2023-01-09T07:44:26.581Z,19.57
2023-01-09T07:46:54.382Z,17.15
2023-01-09T07:49:22.034Z,20.05
2023-01-09T07:51:49.653Z,19.27
2023-01-09T07:54:17.499Z,18.67
2023-01-09T07:56:45.246Z,21.60
2023-01-09T07:59:12.830Z,22.10
2023-01-09T08:01:40.790Z,21.35
2023-01-09T08:04:08.671Z,21.83
2023-01-09T08:06:36.291Z,19.58
2023-01-09T08:09:04.139Z,23.97
2023-01-09T08:11:32.439Z,19.77
2023-01-09T08:13:59.932Z,18.77
2023-01-09T08:16:27.611Z,18.42
2023-01-09T08:18:55.403Z,17.87
2023-01-09T08:21:22.969Z,19.00
2023-01-09T08:23:50.534Z,19.77
2023-01-09T08:26:19.581Z,20.92
2023-01-09T08:28:48.483Z,20.75
2023-01-09T08:31:16.163Z,21.58
2023-01-09T08:33:44.011Z,18.80
2023-01-09T08:36:11.619Z,20.42
2023-01-09T08:38:39.206Z,18.42
2023-01-09T08:41:25.886Z,21.35
2023-01-09T08:44:12.187Z,20.42
2023-01-09T08:46:58.485Z,18.53
2023-01-09T08:49:26.026Z,24.12
2023-01-09T08:51:53.915Z,17.98
2023-01-09T08:54:21.512Z,21.12
2023-01-09T08:56:49.088Z,19.65
2023-01-09T08:59:17.130Z,20.50
2023-01-09T09:01:45.389Z,18.95
2023-01-09T09:04:13.064Z,20.27
2023-01-09T09:06:41.000Z,19.85
2023-01-09T09:09:09.095Z,20.65
2023-01-09T09:11:36.828Z,18.60
2023-01-09T09:14:25.533Z,19.17
2023-01-09T09:16:53.501Z,21.40
2023-01-09T09:19:21.721Z,19.50
2023-01-09T09:21:49.361Z,19.75
2023-01-09T09:24:16.846Z,20.13
2023-01-09T09:26:44.867Z,20.77
2023-01-09T09:29:12.589Z,21.23
2023-01-09T09:31:40.213Z,20.58
2023-01-09T09:34:08.603Z,21.23
2023-01-09T09:36:36.357Z,22.13
2023-01-09T09:39:04.070Z,20.58
2023-01-09T09:42:11.472Z,20.80
2023-01-09T09:45:03.791Z,18.65
2023-01-09T09:48:09.801Z,19.85
2023-01-09T09:50:59.077Z,20.77
2023-01-09T09:54:00.042Z,20.83
2023-01-09T09:56:30.641Z,19.70
2023-01-09T09:59:09.268Z,21.58
2023-01-09T10:01:41.078Z,19.17
2023-01-09T10:04:17.685Z,20.07
2023-01-09T10:06:48.815Z,19.52
2023-01-09T10:09:32.753Z,20.15
2023-01-09T10:12:04.104Z,21.00
2023-01-09T10:14:32.399Z,21.50
2023-01-09T10:17:17.548Z,20.93
2023-01-09T10:20:17.714Z,17.92
2023-01-09T10:22:48.913Z,20.27
2023-01-09T10:25:42.718Z,18.55
2023-01-09T10:28:17.593Z,18.05
2023-01-09T10:31:09.529Z,20.17
2023-01-09T10:33:54.873Z,18.62
2023-01-09T10:36:51.821Z,19.00
2023-01-09T10:39:43.702Z,19.73
2023-01-09T10:42:22.908Z,20.80
2023-01-09T10:45:19.889Z,19.40
2023-01-09T10:47:48.567Z,18.52
2023-01-09T10:50:23.683Z,19.98
2023-01-09T10:52:53.989Z,20.23
2023-01-09T10:55:44.016Z,20.00
2023-01-09T10:58:18.155Z,20.10
2023-01-09T11:00:46.893Z,19.15
2023-01-09T11:03:17.684Z,18.17
2023-01-09T11:05:51.590Z,19.10
2023-01-09T11:08:32.009Z,15.90
2023-01-09T11:11:01.538Z,19.53
2023-01-09T11:13:34.225Z,19.87
2023-01-09T11:16:09.308Z,18.00
2023-01-09T11:18:48.494Z,23.00
2023-01-09T11:21:38.106Z,18.62
2023-01-09T11:24:21.406Z,19.00
2023-01-09T11:26:50.916Z,21.12
2023-01-09T11:29:20.621Z,20.70
2023-01-09T11:31:54.534Z,22.45
2023-01-09T11:34:28.520Z,18.60
2023-01-09T11:37:04.705Z,18.93
2023-01-09T11:39:34.283Z,20.48
2023-01-09T11:42:07.112Z,20.92
2023-01-09T11:44:35.139Z,19.98
2023-01-09T11:47:06.793Z,22.23
2023-01-09T11:49:34.588Z,24.00
2023-01-09T11:52:22.170Z,22.02
2023-01-09T11:54:54.208Z,24.50
2023-01-09T11:57:26.011Z,21.58
2023-01-09T11:59:59.280Z,22.00
2023-01-09T12:02:53.447Z,23.50
2023-01-09T12:05:40.685Z,24.73
2023-01-09T12:08:20.304Z,21.45
2023-01-09T12:10:50.856Z,24.20
2023-01-09T12:13:36.589Z,18.23
2023-01-09T12:16:07.261Z,22.97
2023-01-09T12:18:53.500Z,21.87
2023-01-09T12:21:32.730Z,22.05
2023-01-09T12:24:18.618Z,20.02
2023-01-09T12:27:02.241Z,24.35
2023-01-09T12:29:52.389Z,21.20
2023-01-09T12:32:24.151Z,21.62
2023-01-09T12:42:07.728Z,21.50
2023-01-09T12:45:13.019Z,19.80
2023-01-09T12:47:46.388Z,21.30
2023-01-09T12:50:14.508Z,20.60
2023-01-09T12:52:52.209Z,18.52
2023-01-09T12:55:24.413Z,18.77
2023-01-09T12:57:55.169Z,19.00
2023-01-09T13:00:35.601Z,26.60
2023-01-09T13:03:12.943Z,27.23
2023-01-09T13:05:46.926Z,22.42
2023-01-09T13:08:34.711Z,20.95
2023-01-09T13:11:20.236Z,19.83
2023-01-09T13:14:02.264Z,18.05
2023-01-09T13:16:36.970Z,19.73
2023-01-09T13:19:23.031Z,21.10
2023-01-09T13:21:52.261Z,22.20
2023-01-09T13:24:24.991Z,20.77
2023-01-09T13:27:00.371Z,21.62
2023-01-09T13:29:50.646Z,23.45
2023-01-09T13:32:30.663Z,23.83
2023-01-09T13:34:58.705Z,21.95
2023-01-09T13:37:32.025Z,22.57
2023-01-09T13:40:06.118Z,21.83
2023-01-09T13:42:39.274Z,20.62
2023-01-09T13:45:25.746Z,20.33
2023-01-09T13:48:09.707Z,23.80
2023-01-09T13:50:41.723Z,30.17
2023-01-09T13:53:27.817Z,35.70
2023-01-09T13:55:58.881Z,29.92
2023-01-09T13:58:47.911Z,25.55
2023-01-09T14:01:24.933Z,25.27
2023-01-09T14:04:23.888Z,23.67
2023-01-09T14:07:17.717Z,23.95
2023-01-09T14:09:48.728Z,23.12
2023-01-09T14:12:19.485Z,24.17
2023-01-09T14:14:47.829Z,23.20
2023-01-09T14:17:44.680Z,20.10
2023-01-09T14:20:27.420Z,22.85
2023-01-09T14:23:18.080Z,27.08
2023-01-09T14:25:46.679Z,25.20
2023-01-09T14:28:27.850Z,30.35
2023-01-09T14:30:55.618Z,27.60
2023-01-09T14:33:23.732Z,25.85
2023-01-09T14:36:03.309Z,27.17
2023-01-09T14:38:47.028Z,34.03
2023-01-09T14:41:44.873Z,31.25
2023-01-09T14:44:18.991Z,36.93
2023-01-09T14:46:47.850Z,45.38
2023-01-09T14:49:28.349Z,46.30
2023-01-09T14:51:58.632Z,34.08
2023-01-09T14:54:38.199Z,30.30
2023-01-09T14:57:26.956Z,33.87
2023-01-09T15:00:13.112Z,33.63
2023-01-09T15:02:41.745Z,33.22
2023-01-09T15:05:23.810Z,30.05
2023-01-09T15:07:55.402Z,30.33
2023-01-09T15:10:35.064Z,32.37
2023-01-09T15:13:06.501Z,32.42
2023-01-09T15:15:35.360Z,29.05
2023-01-09T15:18:07.914Z,29.60
2023-01-09T15:20:35.757Z,29.55
2023-01-09T15:23:06.706Z,25.33
2023-01-09T15:25:39.604Z,27.55
2023-01-09T15:28:27.820Z,26.65
2023-01-09T15:31:00.930Z,26.15
2023-01-09T15:33:29.120Z,26.30
2023-01-09T15:36:02.055Z,24.67
2023-01-09T15:38:32.439Z,22.30
2023-01-09T15:41:35.939Z,20.88
2023-01-09T15:44:13.424Z,20.15
2023-01-09T15:46:41.196Z,17.92
2023-01-09T15:49:11.457Z,15.20
2023-01-09T15:51:40.672Z,15.55
2023-01-09T15:54:14.397Z,19.33
2023-01-09T15:56:44.598Z,18.95
2023-01-09T15:59:29.082Z,18.73
2023-01-09T16:02:20.564Z,22.47
2023-01-09T16:04:49.092Z,21.12
2023-01-09T16:07:19.054Z,20.10
2023-01-09T16:09:48.442Z,18.62
2023-01-09T16:12:25.273Z,17.67
2023-01-09T16:14:54.952Z,16.50
2023-01-09T16:17:26.865Z,15.20
2023-01-09T16:19:59.906Z,13.25
2023-01-09T16:22:29.542Z,16.00
2023-01-09T16:24:59.592Z,17.90
2023-01-09T16:27:30.875Z,15.33
2023-01-09T16:30:07.705Z,15.85
2023-01-09T16:32:46.341Z,15.40
2023-01-09T16:35:17.047Z,15.73
2023-01-09T16:37:44.664Z,11.95
2023-01-09T16:40:16.953Z,13.40
2023-01-09T16:43:03.822Z,13.00
2023-01-09T16:45:37.064Z,11.30
2023-01-09T16:48:20.874Z,12.88
2023-01-09T16:50:48.626Z,13.68
2023-01-09T16:53:18.022Z,27.70
2023-01-09T16:55:46.274Z,26.30
2023-01-09T16:58:18.290Z,21.17
2023-01-09T17:00:47.901Z,18.37
2023-01-09T17:03:16.805Z,20.58
2023-01-09T17:05:44.455Z,17.50
2023-01-09T17:08:25.515Z,20.90
2023-01-09T17:10:54.289Z,19.15
2023-01-09T17:13:22.855Z,22.83
2023-01-09T17:15:51.936Z,18.62
2023-01-09T17:18:21.779Z,18.47
2023-01-09T17:20:54.944Z,17.10
2023-01-09T17:23:25.531Z,19.98
2023-01-09T17:26:15.252Z,20.02
2023-01-09T17:28:50.764Z,17.00
2023-01-09T17:31:19.216Z,17.40
2023-01-09T17:33:47.068Z,17.08
2023-01-09T17:36:32.021Z,18.73
2023-01-09T17:39:00.739Z,16.02
2023-01-09T17:41:30.645Z,16.02
2023-01-09T17:43:59.555Z,15.43
2023-01-09T17:46:30.440Z,18.85
2023-01-09T17:48:58.774Z,15.00
2023-01-09T17:51:26.838Z,19.50
2023-01-09T17:53:55.167Z,17.45
2023-01-09T17:56:24.967Z,14.20
2023-01-09T17:58:53.259Z,17.37
2023-01-09T18:01:21.682Z,16.65
2023-01-09T18:03:50.665Z,19.12
2023-01-09T18:06:20.464Z,21.00
2023-01-09T18:08:48.659Z,20.83
2023-01-09T18:11:19.164Z,15.23
2023-01-09T18:13:48.299Z,15.65
2023-01-09T18:16:18.914Z,19.02
2023-01-09T18:18:47.331Z,15.70
2023-01-09T18:21:18.018Z,15.37
2023-01-09T18:23:47.618Z,15.75
2023-01-09T18:26:22.211Z,15.93
2023-01-09T18:28:52.283Z,19.35
2023-01-09T18:31:23.980Z,17.27
2023-01-09T18:33:53.385Z,15.40
2023-01-09T18:36:23.766Z,18.17
2023-01-09T18:38:53.539Z,15.55
2023-01-09T18:41:22.080Z,17.92
2023-01-09T18:43:54.787Z,18.25
2023-01-09T18:46:25.589Z,17.37
2023-01-09T18:48:54.681Z,19.33
2023-01-09T18:51:24.819Z,17.92
2023-01-09T18:53:53.075Z,18.85
2023-01-09T18:56:21.594Z,19.87
2023-01-09T18:58:49.858Z,21.30
2023-01-09T19:01:18.061Z,18.65
2023-01-09T19:03:46.271Z,17.20
2023-01-09T19:06:14.143Z,18.77
2023-01-09T19:08:42.110Z,17.17
2023-01-09T19:11:09.716Z,20.50
2023-01-09T19:13:38.602Z,23.35
2023-01-09T19:16:07.672Z,26.45
2023-01-09T19:18:38.202Z,26.52
2023-01-09T19:21:18.074Z,27.08
2023-01-09T19:23:46.774Z,28.93
2023-01-09T19:26:20.280Z,21.05
2023-01-09T19:28:48.229Z,23.65
2023-01-09T19:31:17.080Z,23.17
2023-01-09T19:33:45.253Z,21.83
2023-01-09T19:36:12.943Z,19.87
2023-01-09T19:38:41.172Z,20.02
2023-01-09T19:41:14.318Z,19.87
2023-01-09T19:43:42.339Z,22.42
2023-01-09T19:46:12.733Z,24.63
2023-01-09T19:48:42.629Z,17.23
2023-01-09T19:51:11.935Z,17.40
2023-01-09T19:53:40.227Z,15.13
2023-01-09T19:56:16.622Z,18.23
2023-01-09T19:58:52.500Z,37.33
2023-01-09T20:01:26.053Z,30.77
2023-01-09T20:03:56.501Z,32.35
2023-01-09T20:06:26.433Z,27.83
2023-01-09T20:08:56.120Z,22.08
2023-01-09T20:11:25.564Z,19.95
2023-01-09T20:13:55.571Z,18.83
2023-01-09T20:16:28.454Z,16.45
2023-01-09T20:18:58.243Z,13.95
2023-01-09T20:21:27.900Z,13.73
2023-01-09T20:23:57.483Z,16.92
2023-01-09T20:26:25.891Z,19.97
2023-01-09T20:28:55.033Z,16.65
2023-01-09T20:31:23.656Z,15.82
2023-01-09T20:33:51.432Z,13.20
2023-01-09T20:36:23.117Z,11.70
2023-01-09T20:38:50.643Z,13.33
2023-01-09T20:41:25.387Z,12.73
2023-01-09T20:43:56.010Z,12.27
2023-01-09T20:46:26.124Z,13.30
2023-01-09T20:48:58.367Z,13.20
2023-01-09T20:51:26.291Z,11.80
2023-01-09T20:53:58.397Z,14.63
2023-01-09T20:56:26.949Z,12.20
2023-01-09T20:58:55.970Z,11.27
2023-01-09T21:01:24.395Z,11.38
2023-01-09T21:03:53.242Z,10.70
2023-01-09T21:06:23.061Z,10.55
2023-01-09T21:08:52.153Z,10.60
2023-01-09T21:11:21.141Z,9.90
2023-01-09T21:13:49.448Z,9.38
2023-01-09T21:16:20.097Z,10.17
2023-01-09T21:18:48.673Z,9.55
2023-01-09T21:21:19.757Z,11.55
2023-01-09T21:23:51.852Z,10.55
2023-01-09T21:26:22.606Z,10.02
2023-01-09T21:28:53.973Z,10.00
2023-01-09T21:31:34.327Z,8.35
2023-01-09T21:34:05.109Z,8.10
2023-01-09T21:36:33.534Z,9.57
2023-01-09T21:39:01.447Z,7.65
2023-01-09T21:41:48.058Z,9.07
2023-01-09T21:44:34.713Z,8.30
2023-01-09T21:47:03.367Z,10.20
2023-01-09T21:49:35.242Z,9.18
2023-01-09T21:52:04.160Z,10.30
2023-01-09T21:54:32.766Z,8.97
2023-01-09T21:57:00.589Z,8.95
2023-01-09T21:59:33.507Z,9.43
2023-01-09T22:02:01.553Z,10.68
2023-01-09T22:04:29.642Z,9.50
2023-01-09T22:06:57.279Z,10.10
2023-01-09T22:09:24.978Z,12.02
2023-01-09T22:11:52.846Z,8.65
2023-01-09T22:14:20.963Z,13.57
2023-01-09T22:16:48.631Z,13.52
2023-01-09T22:19:19.610Z,11.07
2023-01-09T22:21:47.380Z,10.68
2023-01-09T22:24:16.892Z,9.88
2023-01-09T22:26:45.029Z,10.73
2023-01-09T22:29:12.694Z,12.13
2023-01-09T22:31:40.632Z,10.23
2023-01-09T22:34:16.312Z,7.97
2023-01-09T22:36:45.061Z,9.85
2023-01-09T22:39:14.863Z,8.63
2023-01-09T22:41:42.622Z,11.15
2023-01-09T22:44:11.393Z,11.87
2023-01-09T22:46:39.465Z,11.02
2023-01-09T22:49:07.143Z,10.85
2023-01-09T22:51:34.737Z,12.85
2023-01-09T22:54:03.009Z,10.48
2023-01-09T22:56:32.229Z,9.83
2023-01-09T22:59:00.986Z,12.57
2023-01-09T23:01:29.373Z,11.00
2023-01-09T23:03:56.914Z,10.27
2023-01-09T23:06:25.419Z,9.70
2023-01-09T23:08:53.585Z,9.63
2023-01-09T23:11:45.527Z,9.20
2023-01-09T23:14:13.681Z,8.10
2023-01-09T23:16:41.817Z,9.00
2023-01-09T23:19:12.816Z,10.93
2023-01-09T23:21:41.161Z,13.13
2023-01-09T23:24:09.467Z,11.40
2023-01-09T23:26:39.291Z,12.75
2023-01-09T23:29:07.929Z,10.00
2023-01-09T23:31:36.071Z,9.50
2023-01-09T23:34:04.476Z,10.60
2023-01-09T23:36:32.350Z,10.93
2023-01-09T23:39:00.352Z,10.02
2023-01-09T23:41:47.898Z,9.18
2023-01-09T23:44:15.795Z,9.63
2023-01-09T23:46:43.260Z,9.27
2023-01-09T23:49:11.223Z,11.07
2023-01-09T23:51:39.017Z,8.80
2023-01-09T23:54:06.646Z,9.63
2023-01-09T23:56:34.625Z,11.10
2023-01-09T23:59:05.509Z,8.77
